createdAt,value
2023-04-15T00:00:01.276Z,94.58
2023-04-15T00:01:01.282Z,94.68
2023-04-15T00:02:01.366Z,94.48
2023-04-15T00:03:01.420Z,94.58
2023-04-15T00:04:01.350Z,94.58
2023-04-15T00:05:01.270Z,94.68
2023-04-15T00:06:01.230Z,94.68
2023-04-15T00:07:01.247Z,94.68
2023-04-15T00:08:01.201Z,95.31
2023-04-15T00:09:01.674Z,96.03
2023-04-15T00:10:01.204Z,96.45
2023-04-15T00:11:01.174Z,96.86
2023-04-15T00:12:01.153Z,97.17
2023-04-15T00:13:01.220Z,97.28
2023-04-15T00:14:01.205Z,97.07
2023-04-15T00:15:01.172Z,97.07
2023-04-15T00:16:01.109Z,96.86
2023-04-15T00:17:01.146Z,96.76
2023-04-15T00:18:01.163Z,96.45
2023-04-15T00:19:01.485Z,96.03
2023-04-15T00:20:01.072Z,95.93
2023-04-15T00:21:01.074Z,96.14
2023-04-15T00:22:01.109Z,96.24
2023-04-15T00:23:01.052Z,96.14
2023-04-15T00:24:01.091Z,95.87
2023-04-15T00:25:01.070Z,95.67
2023-04-15T00:26:01.039Z,95.46
2023-04-15T00:27:01.032Z,95.36
2023-04-15T00:28:01.114Z,95.25
2023-04-15T00:29:01.210Z,95.25
2023-04-15T00:30:00.967Z,95.15
2023-04-15T00:31:01.006Z,95.46
2023-04-15T00:32:00.930Z,95.98
2023-04-15T00:33:01.025Z,96.08
2023-04-15T00:34:00.912Z,96.29
2023-04-15T00:35:00.976Z,96.39
2023-04-15T00:36:00.930Z,96.60
2023-04-15T00:37:01.063Z,96.75
2023-04-15T00:38:00.902Z,96.81
2023-04-15T00:39:01.118Z,97.43
2023-04-15T00:40:00.884Z,97.85
2023-04-15T00:41:00.906Z,98.16
2023-04-15T00:42:00.877Z,98.16
2023-04-15T00:43:00.888Z,97.95
2023-04-15T00:44:00.848Z,97.85
2023-04-15T00:45:00.845Z,98.16
2023-04-15T00:46:00.941Z,98.47
2023-04-15T00:47:00.791Z,98.57
2023-04-15T00:48:00.924Z,98.78
2023-04-15T00:49:00.918Z,98.68
2023-04-15T00:50:00.839Z,98.57
2023-04-15T00:51:00.792Z,98.36
2023-04-15T00:52:00.779Z,98.36
2023-04-15T00:53:00.780Z,98.36
2023-04-15T00:54:00.734Z,98.05
2023-04-15T00:55:00.798Z,98.05
2023-04-15T00:56:00.729Z,98.16
2023-04-15T00:57:00.703Z,98.05
2023-04-15T00:58:00.729Z,97.74
2023-04-15T00:59:00.852Z,97.43
2023-04-15T01:00:00.672Z,97.37
2023-04-15T01:01:00.685Z,97.47
2023-04-15T01:02:00.864Z,97.58
2023-04-15T01:03:00.815Z,97.47
2023-04-15T01:04:00.812Z,97.37
2023-04-15T01:05:00.675Z,97.16
2023-04-15T01:06:03.394Z,97.06
2023-04-15T01:07:00.674Z,97.06
2023-04-15T01:08:00.657Z,96.85
2023-04-15T01:09:00.967Z,96.75
2023-04-15T01:10:00.582Z,96.75
2023-04-15T01:11:00.600Z,96.79
2023-04-15T01:12:00.602Z,96.69
2023-04-15T01:13:00.629Z,96.79
2023-04-15T01:14:00.523Z,97.00
2023-04-15T01:15:00.583Z,97.10
2023-04-15T01:16:00.631Z,98.03
2023-04-15T01:17:00.544Z,98.66
2023-04-15T01:18:00.604Z,99.13
2023-04-15T01:19:00.752Z,99.34
2023-04-15T01:20:01.023Z,99.24
2023-04-15T01:21:00.487Z,99.18
2023-04-15T01:22:00.801Z,99.28
2023-04-15T01:23:00.828Z,99.28
2023-04-15T01:24:00.609Z,99.38
2023-04-15T01:25:00.514Z,99.49
2023-04-15T01:26:01.344Z,99.70
2023-04-15T01:27:00.626Z,99.96
2023-04-15T01:28:00.566Z,99.99
2023-04-15T01:29:00.603Z,99.99
2023-04-15T01:30:00.373Z,99.99
2023-04-15T01:31:00.482Z,99.99
2023-04-15T01:32:00.376Z,99.99
2023-04-15T01:33:00.377Z,99.96
2023-04-15T01:34:00.504Z,99.96
2023-04-15T01:35:00.512Z,99.99
2023-04-15T01:36:00.400Z,99.99
2023-04-15T01:37:00.332Z,99.99
2023-04-15T01:38:00.484Z,99.99
2023-04-15T01:39:00.861Z,99.99
2023-04-15T01:40:00.620Z,99.99
2023-04-15T01:41:00.443Z,99.99
2023-04-15T01:42:00.463Z,99.99
2023-04-15T01:43:00.273Z,99.99
2023-04-15T01:44:00.288Z,99.99
2023-04-15T01:45:00.367Z,99.99
2023-04-15T01:46:00.392Z,99.99
2023-04-15T01:47:00.349Z,99.99
2023-04-15T01:48:00.441Z,99.99
2023-04-15T01:49:00.416Z,99.99
2023-04-15T01:50:00.364Z,99.99
2023-04-15T01:51:00.222Z,99.99
2023-04-15T01:52:00.311Z,99.99
2023-04-15T01:53:00.352Z,99.99
2023-04-15T01:54:00.262Z,99.99
2023-04-15T01:55:00.202Z,99.99
2023-04-15T01:56:00.167Z,99.99
2023-04-15T01:57:00.129Z,99.99
2023-04-15T01:58:00.231Z,99.99
2023-04-15T01:59:00.426Z,99.99
2023-04-15T02:00:00.114Z,99.99
2023-04-15T02:01:00.551Z,99.99
2023-04-15T02:02:00.240Z,99.82
2023-04-15T02:03:00.455Z,99.93
2023-04-15T02:04:00.087Z,99.72
2023-04-15T02:05:00.169Z,99.52
2023-04-15T02:06:00.035Z,99.62
2023-04-15T02:07:00.057Z,99.52
2023-04-15T02:07:59.989Z,99.52
2023-04-15T02:09:00.610Z,99.66
2023-04-15T02:09:59.991Z,99.77
2023-04-15T02:11:00.204Z,99.77
2023-04-15T02:11:59.967Z,99.77
2023-04-15T02:12:59.997Z,99.77
2023-04-15T02:14:00.060Z,99.98
2023-04-15T02:14:59.951Z,99.99
2023-04-15T02:16:00.155Z,99.99
2023-04-15T02:17:00.142Z,99.99
2023-04-15T02:17:59.903Z,99.99
2023-04-15T02:19:00.216Z,99.99
2023-04-15T02:19:59.884Z,99.99
2023-04-15T02:20:59.867Z,99.99
2023-04-15T02:21:59.846Z,99.99
2023-04-15T02:22:59.852Z,99.99
2023-04-15T02:23:59.980Z,99.99
2023-04-15T02:24:59.982Z,99.99
2023-04-15T02:26:00.006Z,99.99
2023-04-15T02:26:59.854Z,99.99
2023-04-15T02:27:59.977Z,99.99
2023-04-15T02:28:59.960Z,99.99
2023-04-15T02:29:59.834Z,99.99
2023-04-15T02:30:59.854Z,99.99
2023-04-15T02:31:59.947Z,99.99
2023-04-15T02:32:59.917Z,99.99
2023-04-15T02:33:59.923Z,99.99
2023-04-15T02:34:59.782Z,99.99
2023-04-15T02:35:59.908Z,99.99
2023-04-15T02:36:59.802Z,99.99
2023-04-15T02:37:59.770Z,99.99
2023-04-15T02:39:00.399Z,99.99
2023-04-15T02:39:59.939Z,99.99
2023-04-15T02:40:59.852Z,99.99
2023-04-15T02:41:59.856Z,99.99
2023-04-15T02:42:59.808Z,99.99
2023-04-15T02:43:59.630Z,99.99
2023-04-15T02:44:59.650Z,99.99
2023-04-15T02:45:59.860Z,99.99
2023-04-15T02:47:00.041Z,99.99
2023-04-15T02:47:59.913Z,99.99
2023-04-15T02:49:00.192Z,99.99
2023-04-15T02:49:59.680Z,99.99
2023-04-15T02:50:59.714Z,99.99
2023-04-15T02:51:59.791Z,99.99
2023-04-15T02:52:59.759Z,99.99
2023-04-15T02:53:59.704Z,99.99
2023-04-15T02:54:59.571Z,99.99
2023-04-15T02:55:59.652Z,99.99
2023-04-15T02:56:59.753Z,99.99
2023-04-15T02:57:59.542Z,99.99
2023-04-15T02:58:59.741Z,99.99
2023-04-15T02:59:59.515Z,99.99
2023-04-15T03:00:59.673Z,99.99
2023-04-15T03:01:59.640Z,99.99
2023-04-15T03:02:59.751Z,99.99
2023-04-15T03:03:59.666Z,99.99
2023-04-15T03:04:59.571Z,99.99
2023-04-15T03:05:59.634Z,99.99
2023-04-15T03:06:59.721Z,99.99
2023-04-15T03:07:59.402Z,99.99
2023-04-15T03:08:59.729Z,99.99
2023-04-15T03:09:59.521Z,99.99
2023-04-15T03:10:59.381Z,99.99
2023-04-15T03:11:59.731Z,99.99
2023-04-15T03:12:59.407Z,99.99
2023-04-15T03:13:59.464Z,99.99
2023-04-15T03:14:59.402Z,99.99
2023-04-15T03:15:59.441Z,99.99
2023-04-15T03:16:59.320Z,99.99
2023-04-15T03:17:59.330Z,99.99
2023-04-15T03:18:59.744Z,99.99
2023-04-15T03:19:59.325Z,99.99
2023-04-15T03:20:59.377Z,99.99
2023-04-15T03:21:59.332Z,99.99
2023-04-15T03:22:59.286Z,99.99
2023-04-15T03:23:59.321Z,99.99
2023-04-15T03:24:59.392Z,99.99
2023-04-15T03:25:59.260Z,99.99
2023-04-15T03:26:59.391Z,99.99
2023-04-15T03:27:59.208Z,99.99
2023-04-15T03:28:59.503Z,99.99
2023-04-15T03:29:59.356Z,99.99
2023-04-15T03:30:59.395Z,99.99
2023-04-15T03:31:59.188Z,99.99
2023-04-15T03:32:59.275Z,99.99
2023-04-15T03:33:59.351Z,99.99
2023-04-15T03:34:59.170Z,99.99
2023-04-15T03:35:59.124Z,99.99
2023-04-15T03:36:59.372Z,99.99
2023-04-15T03:37:59.130Z,99.99
2023-04-15T03:38:59.254Z,99.99
2023-04-15T03:39:59.401Z,99.99
2023-04-15T03:40:59.208Z,99.99
2023-04-15T03:41:59.119Z,99.99
2023-04-15T03:42:59.157Z,99.99
2023-04-15T03:43:59.191Z,99.99
2023-04-15T03:44:59.048Z,99.99
2023-04-15T03:46:01.400Z,99.99
2023-04-15T03:46:59.293Z,99.99
2023-04-15T03:48:11.478Z,99.99
2023-04-15T03:48:59.246Z,99.99
2023-04-15T03:49:59.023Z,99.99
2023-04-15T03:50:59.131Z,99.99
2023-04-15T03:51:58.969Z,99.99
2023-04-15T03:52:58.983Z,99.99
2023-04-15T03:53:59.175Z,99.99
2023-04-15T03:54:59.217Z,99.99
2023-04-15T03:55:59.196Z,99.99
2023-04-15T03:56:59.057Z,99.99
2023-04-15T03:57:58.963Z,99.99
2023-04-15T03:58:59.223Z,99.99
2023-04-15T03:59:59.244Z,99.99
2023-04-15T04:00:58.933Z,99.99
2023-04-15T04:01:59.045Z,99.99
2023-04-15T04:02:59.166Z,99.99
2023-04-15T04:03:59.045Z,99.99
2023-04-15T04:04:58.996Z,99.99
2023-04-15T04:05:58.918Z,99.99
2023-04-15T04:06:59.043Z,99.99
2023-04-15T04:07:59.022Z,99.99
2023-04-15T04:08:59.421Z,99.99
2023-04-15T04:09:58.823Z,99.99
2023-04-15T04:10:59.026Z,99.99
2023-04-15T04:11:59.158Z,99.99
2023-04-15T04:12:58.914Z,99.99
2023-04-15T04:13:58.761Z,99.99
2023-04-15T04:14:58.831Z,99.99
2023-04-15T04:15:59.005Z,99.99
2023-04-15T04:16:58.775Z,99.99
2023-04-15T04:17:58.902Z,99.99
2023-04-15T04:18:58.977Z,99.99
2023-04-15T04:19:59.149Z,99.99
2023-04-15T04:20:58.833Z,99.99
2023-04-15T04:21:58.679Z,99.99
2023-04-15T04:22:58.684Z,99.99
2023-04-15T04:23:58.650Z,99.99
2023-04-15T04:24:58.912Z,99.99
2023-04-15T04:25:58.641Z,99.99
2023-04-15T04:26:58.674Z,99.99
2023-04-15T04:27:58.656Z,99.99
2023-04-15T04:28:59.019Z,99.99
2023-04-15T04:29:58.643Z,99.99
2023-04-15T04:30:58.679Z,99.99
2023-04-15T04:31:58.675Z,99.99
2023-04-15T04:32:58.718Z,99.99
2023-04-15T04:33:58.594Z,99.99
2023-04-15T04:34:58.567Z,99.99
2023-04-15T04:35:58.550Z,99.99
2023-04-15T04:36:58.577Z,99.99
2023-04-15T04:37:58.507Z,99.99
2023-04-15T04:38:58.703Z,99.99
2023-04-15T04:39:58.615Z,99.99
2023-04-15T04:40:58.678Z,99.99
2023-04-15T04:41:58.481Z,99.99
2023-04-15T04:42:58.517Z,99.99
2023-04-15T04:43:58.546Z,99.99
2023-04-15T04:44:58.619Z,99.99
2023-04-15T04:45:58.631Z,99.99
2023-04-15T04:46:58.615Z,99.99
2023-04-15T04:47:58.475Z,99.99
2023-04-15T04:48:58.487Z,99.99
2023-04-15T04:49:58.420Z,99.99
2023-04-15T04:50:58.482Z,99.99
2023-04-15T04:51:58.379Z,99.99
2023-04-15T04:52:58.472Z,99.99
2023-04-15T04:53:58.607Z,99.99
2023-04-15T04:54:58.642Z,99.99
2023-04-15T04:55:58.365Z,99.99
2023-04-15T04:56:58.337Z,99.99
2023-04-15T04:57:58.408Z,99.99
2023-04-15T04:58:58.417Z,99.99
2023-04-15T04:59:58.461Z,99.99
2023-04-15T05:00:58.367Z,99.99
2023-04-15T05:01:58.569Z,99.99
2023-04-15T05:02:58.525Z,99.99
2023-04-15T05:03:58.516Z,99.99
2023-04-15T05:04:58.454Z,99.99
2023-04-15T05:05:58.236Z,99.99
2023-04-15T05:06:58.461Z,99.99
2023-04-15T05:07:58.449Z,99.99
2023-04-15T05:08:58.527Z,99.99
2023-04-15T05:09:58.308Z,99.99
2023-04-15T05:10:58.552Z,99.99
2023-04-15T05:11:58.239Z,99.99
2023-04-15T05:12:58.305Z,99.99
2023-04-15T05:13:58.166Z,99.99
2023-04-15T05:14:58.204Z,99.99
2023-04-15T05:15:58.174Z,99.99
2023-04-15T05:16:58.596Z,99.99
2023-04-15T05:17:58.310Z,99.99
2023-04-15T05:18:58.160Z,99.99
2023-04-15T05:19:58.359Z,99.99
2023-04-15T05:20:58.205Z,99.99
2023-04-15T05:21:58.308Z,99.99
2023-04-15T05:22:58.230Z,99.99
2023-04-15T05:23:58.356Z,99.99
2023-04-15T05:24:58.329Z,99.99
2023-04-15T05:25:58.096Z,99.99
2023-04-15T05:26:58.243Z,99.99
2023-04-15T05:27:58.068Z,99.99
2023-04-15T05:28:58.164Z,99.99
2023-04-15T05:29:58.042Z,99.99
2023-04-15T05:30:58.349Z,99.99
2023-04-15T05:31:58.110Z,99.99
2023-04-15T05:32:58.193Z,99.99
2023-04-15T05:33:58.038Z,99.99
2023-04-15T05:34:58.064Z,99.99
2023-04-15T05:35:58.276Z,99.99
2023-04-15T05:36:58.105Z,99.99
2023-04-15T05:37:58.023Z,99.99
2023-04-15T05:38:58.063Z,99.99
2023-04-15T05:39:57.934Z,99.99
2023-04-15T05:40:58.181Z,99.99
2023-04-15T05:41:57.984Z,99.99
2023-04-15T05:42:57.933Z,99.99
2023-04-15T05:43:58.008Z,99.99
2023-04-15T05:44:57.921Z,99.99
2023-04-15T05:45:57.973Z,99.99
2023-04-15T05:46:57.842Z,99.99
2023-04-15T05:47:58.057Z,99.99
2023-04-15T05:48:58.077Z,99.99
2023-04-15T05:49:57.828Z,99.99
2023-04-15T05:50:58.039Z,99.99
2023-04-15T05:51:58.120Z,99.99
2023-04-15T05:52:58.022Z,99.99
2023-04-15T05:53:57.958Z,99.99
2023-04-15T05:54:58.361Z,99.99
2023-04-15T05:55:57.777Z,99.99
2023-04-15T05:56:58.115Z,99.99
2023-04-15T05:57:57.779Z,99.99
2023-04-15T05:58:57.967Z,99.99
2023-04-15T05:59:57.754Z,99.99
2023-04-15T06:00:57.717Z,99.99
2023-04-15T06:01:57.804Z,99.99
2023-04-15T06:02:57.823Z,99.99
2023-04-15T06:03:57.832Z,99.99
2023-04-15T06:04:58.338Z,99.99
2023-04-15T06:05:57.895Z,99.99
2023-04-15T06:06:57.768Z,99.99
2023-04-15T06:07:57.930Z,99.99
2023-04-15T06:08:57.671Z,99.99
2023-04-15T06:09:57.645Z,99.99
2023-04-15T06:10:57.916Z,99.78
2023-04-15T06:11:57.891Z,99.47
2023-04-15T06:12:57.789Z,99.06
2023-04-15T06:13:57.679Z,98.70
2023-04-15T06:14:59.587Z,98.50
2023-04-15T06:15:57.627Z,97.94
2023-04-15T06:16:57.708Z,97.52
2023-04-15T06:17:58.059Z,97.31
2023-04-15T06:18:57.835Z,97.38
2023-04-15T06:19:58.037Z,97.17
2023-04-15T06:20:57.906Z,96.55
2023-04-15T06:21:57.932Z,96.50
2023-04-15T06:22:58.141Z,96.20
2023-04-15T06:23:58.121Z,95.68
2023-04-15T06:24:58.035Z,95.58
2023-04-15T06:25:57.465Z,95.12
2023-04-15T06:26:57.652Z,95.12
2023-04-15T06:27:57.600Z,94.92
2023-04-15T06:28:57.670Z,94.77
2023-04-15T06:29:57.593Z,94.56
2023-04-15T06:30:57.679Z,94.05
2023-04-15T06:31:57.851Z,93.90
2023-04-15T06:32:57.812Z,93.08
2023-04-15T06:33:57.426Z,92.67
2023-04-15T06:34:57.504Z,92.52
2023-04-15T06:35:57.561Z,91.60
2023-04-15T06:36:57.794Z,90.47
2023-04-15T06:37:57.598Z,91.45
2023-04-15T06:38:57.373Z,91.35
2023-04-15T06:39:57.385Z,90.18
2023-04-15T06:40:57.330Z,89.15
2023-04-15T06:41:57.464Z,89.21
2023-04-15T06:42:57.360Z,89.62
2023-04-15T06:43:57.842Z,88.86
2023-04-15T06:44:57.368Z,88.51
2023-04-15T06:45:57.327Z,88.31
2023-04-15T06:46:57.263Z,86.77
2023-04-15T06:47:57.290Z,86.73
2023-04-15T06:48:57.364Z,87.45
2023-04-15T06:49:57.317Z,86.63
2023-04-15T06:50:57.611Z,87.24
2023-04-15T06:51:57.432Z,87.30
2023-04-15T06:52:57.367Z,85.42
2023-04-15T06:53:57.858Z,85.72
2023-04-15T06:54:57.204Z,84.91
2023-04-15T06:55:57.195Z,84.66
2023-04-15T06:56:57.643Z,84.15
2023-04-15T06:57:57.168Z,83.91
2023-04-15T06:58:57.246Z,84.01
2023-04-15T06:59:57.328Z,83.87
2023-04-15T07:00:57.220Z,83.01
2023-04-15T07:01:57.214Z,83.01
2023-04-15T07:02:57.153Z,83.18
2023-04-15T07:03:57.314Z,81.24
2023-04-15T07:04:57.243Z,78.85
2023-04-15T07:05:57.276Z,79.57
2023-04-15T07:06:57.243Z,80.55
2023-04-15T07:07:57.248Z,79.83
2023-04-15T07:08:57.041Z,78.47
2023-04-15T07:09:57.059Z,76.67
2023-04-15T07:10:57.420Z,79.05
2023-04-15T07:11:57.060Z,77.22
2023-04-15T07:12:57.546Z,78.03
2023-04-15T07:13:57.021Z,79.05
2023-04-15T07:14:57.098Z,78.34
2023-04-15T07:15:57.233Z,79.25
2023-04-15T07:16:56.995Z,79.73
2023-04-15T07:17:57.012Z,79.22
2023-04-15T07:18:56.995Z,78.00
2023-04-15T07:19:56.961Z,78.00
2023-04-15T07:20:57.072Z,77.59
2023-04-15T07:21:57.141Z,77.08
2023-04-15T07:22:56.929Z,78.88
2023-04-15T07:23:56.895Z,78.57
2023-04-15T07:24:56.915Z,77.55
2023-04-15T07:25:56.883Z,76.22
2023-04-15T07:26:58.515Z,76.84
2023-04-15T07:27:56.882Z,76.09
2023-04-15T07:28:57.066Z,75.48
2023-04-15T07:29:56.872Z,76.70
2023-04-15T07:30:57.262Z,74.96
2023-04-15T07:31:56.871Z,76.39
2023-04-15T07:32:57.076Z,75.23
2023-04-15T07:33:56.842Z,75.13
2023-04-15T07:34:57.181Z,73.74
2023-04-15T07:35:56.924Z,76.50
2023-04-15T07:36:56.863Z,75.98
2023-04-15T07:37:56.838Z,75.78
2023-04-15T07:38:56.941Z,74.90
2023-04-15T07:39:56.935Z,74.73
2023-04-15T07:40:56.835Z,77.38
2023-04-15T07:41:56.753Z,78.77
2023-04-15T07:42:57.253Z,77.25
2023-04-15T07:43:56.845Z,76.12
2023-04-15T07:44:56.919Z,75.61
2023-04-15T07:45:56.904Z,75.51
2023-04-15T07:46:56.688Z,74.63
2023-04-15T07:47:56.871Z,75.54
2023-04-15T07:48:57.217Z,75.95
2023-04-15T07:49:56.707Z,74.93
2023-04-15T07:50:56.622Z,76.36
2023-04-15T07:51:56.875Z,74.69
2023-04-15T07:52:56.956Z,73.19
2023-04-15T07:53:56.642Z,74.22
2023-04-15T07:54:56.746Z,74.05
2023-04-15T07:55:57.028Z,75.85
2023-04-15T07:56:56.758Z,75.61
2023-04-15T07:57:56.755Z,71.94
2023-04-15T07:58:56.717Z,73.27
2023-04-15T07:59:56.724Z,71.91
2023-04-15T08:00:56.572Z,73.84
2023-04-15T08:01:57.229Z,72.28
2023-04-15T08:02:57.069Z,72.79
2023-04-15T08:03:57.128Z,72.55
2023-04-15T08:04:56.614Z,71.84
2023-04-15T08:05:56.479Z,72.04
2023-04-15T08:06:56.534Z,72.41
2023-04-15T08:07:56.796Z,71.50
2023-04-15T08:08:56.544Z,69.36
2023-04-15T08:09:56.473Z,71.39
2023-04-15T08:10:56.522Z,71.26
2023-04-15T08:11:56.693Z,70.65
2023-04-15T08:12:56.492Z,69.53
2023-04-15T08:13:56.998Z,69.67
2023-04-15T08:14:56.437Z,70.28
2023-04-15T08:15:56.529Z,70.45
2023-04-15T08:16:56.440Z,70.04
2023-04-15T08:17:56.619Z,70.65
2023-04-15T08:18:56.550Z,71.67
2023-04-15T08:19:56.349Z,69.93
2023-04-15T08:20:56.661Z,68.85
2023-04-15T08:21:56.420Z,69.76
2023-04-15T08:22:56.338Z,68.37
2023-04-15T08:23:56.333Z,68.17
2023-04-15T08:24:56.552Z,69.19
2023-04-15T08:25:56.543Z,70.31
2023-04-15T08:26:56.306Z,69.59
2023-04-15T08:27:56.537Z,68.68
2023-04-15T08:28:56.232Z,67.86
2023-04-15T08:29:56.224Z,70.72
2023-04-15T08:30:56.266Z,68.98
2023-04-15T08:31:56.320Z,68.57
2023-04-15T08:32:56.234Z,69.87
2023-04-15T08:33:56.181Z,68.13
2023-04-15T08:34:56.223Z,70.75
2023-04-15T08:35:56.275Z,69.40
2023-04-15T08:36:56.173Z,68.88
2023-04-15T08:37:56.257Z,67.77
2023-04-15T08:38:56.443Z,68.68
2023-04-15T08:39:56.566Z,67.87
2023-04-15T08:40:56.110Z,67.43
2023-04-15T08:41:56.244Z,66.31
2023-04-15T08:42:56.739Z,67.19
2023-04-15T08:43:56.098Z,68.01
2023-04-15T08:44:56.288Z,67.77
2023-04-15T08:45:56.139Z,66.86
2023-04-15T08:46:56.594Z,65.44
2023-04-15T08:47:56.623Z,65.84
2023-04-15T08:48:56.213Z,65.41
2023-04-15T08:49:56.156Z,67.03
2023-04-15T08:50:56.200Z,64.73
2023-04-15T08:51:56.149Z,64.53
2023-04-15T08:52:55.994Z,64.47
2023-04-15T08:53:56.161Z,63.93
2023-04-15T08:54:56.027Z,63.60
2023-04-15T08:55:55.960Z,60.66
2023-04-15T08:56:55.969Z,60.57
2023-04-15T08:57:55.957Z,60.19
2023-04-15T08:58:56.016Z,60.62
2023-04-15T08:59:55.947Z,62.31
2023-04-15T09:00:56.214Z,60.28
2023-04-15T09:01:55.935Z,62.11
2023-04-15T09:02:56.008Z,60.93
2023-04-15T09:03:56.071Z,62.78
2023-04-15T09:04:56.164Z,62.88
2023-04-15T09:05:55.989Z,61.90
2023-04-15T09:06:55.995Z,65.08
2023-04-15T09:07:55.910Z,62.14
2023-04-15T09:08:55.887Z,62.21
2023-04-15T09:09:55.942Z,60.66
2023-04-15T09:10:55.843Z,61.02
2023-04-15T09:11:55.909Z,62.45
2023-04-15T09:12:55.807Z,61.83
2023-04-15T09:13:55.881Z,61.94
2023-04-15T09:14:55.794Z,62.75
2023-04-15T09:15:55.859Z,61.80
2023-04-15T09:16:56.069Z,60.53
2023-04-15T09:17:55.973Z,60.27
2023-04-15T09:18:55.932Z,59.67
2023-04-15T09:19:55.717Z,59.90
2023-04-15T09:20:55.772Z,59.22
2023-04-15T09:21:58.084Z,62.43
2023-04-15T09:22:56.053Z,60.68
2023-04-15T09:23:55.865Z,59.47
2023-04-15T09:24:55.912Z,59.16
2023-04-15T09:25:55.682Z,59.49
2023-04-15T09:26:55.871Z,60.68
2023-04-15T09:27:55.779Z,60.23
2023-04-15T09:28:55.693Z,61.97
2023-04-15T09:29:55.693Z,62.81
2023-04-15T09:30:55.801Z,64.03
2023-04-15T09:31:55.649Z,65.99
2023-04-15T09:32:55.833Z,66.80
2023-04-15T09:33:55.661Z,65.64
2023-04-15T09:34:55.767Z,66.58
2023-04-15T09:35:55.628Z,67.02
2023-04-15T09:36:55.659Z,68.55
2023-04-15T09:37:55.561Z,68.04
2023-04-15T09:38:55.883Z,67.94
2023-04-15T09:39:55.511Z,67.77
2023-04-15T09:40:55.576Z,67.47
2023-04-15T09:41:55.541Z,67.06
2023-04-15T09:42:55.558Z,67.77
2023-04-15T09:43:55.584Z,67.67
2023-04-15T09:44:55.557Z,67.54
2023-04-15T09:45:55.644Z,67.77
2023-04-15T09:46:55.498Z,69.06
2023-04-15T09:47:56.987Z,69.26
2023-04-15T09:48:55.506Z,67.53
2023-04-15T09:49:55.486Z,68.92
2023-04-15T09:50:55.632Z,67.74
2023-04-15T09:52:04.987Z,68.72
2023-04-15T09:52:55.559Z,67.50
2023-04-15T09:53:55.418Z,68.32
2023-04-15T09:54:55.490Z,69.23
2023-04-15T09:55:55.577Z,68.72
2023-04-15T09:56:55.398Z,68.44
2023-04-15T09:57:55.423Z,69.36
2023-04-15T09:58:55.447Z,69.84
2023-04-15T09:59:55.572Z,67.94
2023-04-15T10:00:55.385Z,69.60
2023-04-15T10:01:55.742Z,70.21
2023-04-15T10:02:55.403Z,70.10
2023-04-15T10:03:55.470Z,70.79
2023-04-15T10:04:55.316Z,70.07
2023-04-15T10:05:55.303Z,68.55
2023-04-15T10:06:55.320Z,69.70
2023-04-15T10:07:55.281Z,70.41
2023-04-15T10:08:55.312Z,70.10
2023-04-15T10:09:55.268Z,71.77
2023-04-15T10:10:55.293Z,71.19
2023-04-15T10:11:55.245Z,71.91
2023-04-15T10:12:55.251Z,71.70
2023-04-15T10:13:55.243Z,71.94
2023-04-15T10:14:55.203Z,72.04
2023-04-15T10:15:55.477Z,72.41
2023-04-15T10:16:55.188Z,72.92
2023-04-15T10:17:55.420Z,72.52
2023-04-15T10:18:55.307Z,71.80
2023-04-15T10:19:55.210Z,71.60
2023-04-15T10:20:55.140Z,71.47
2023-04-15T10:21:55.256Z,71.97
2023-04-15T10:22:55.123Z,72.65
2023-04-15T10:23:55.151Z,70.99
2023-04-15T10:24:55.229Z,68.85
2023-04-15T10:25:55.313Z,69.91
2023-04-15T10:26:55.176Z,68.49
2023-04-15T10:27:55.159Z,68.21
2023-04-15T10:28:55.166Z,69.94
2023-04-15T10:29:55.046Z,68.44
2023-04-15T10:30:55.171Z,70.31
2023-04-15T10:31:55.188Z,70.89
2023-04-15T10:32:55.045Z,71.63
2023-04-15T10:33:55.214Z,74.42
2023-04-15T10:34:55.003Z,72.89
2023-04-15T10:35:54.961Z,74.21
2023-04-15T10:36:55.230Z,73.71
2023-04-15T10:37:55.033Z,73.26
2023-04-15T10:38:54.976Z,72.14
2023-04-15T10:39:54.983Z,72.31
2023-04-15T10:40:55.096Z,72.62
2023-04-15T10:41:55.221Z,74.21
2023-04-15T10:42:54.960Z,71.26
2023-04-15T10:43:55.119Z,71.06
2023-04-15T10:44:55.442Z,70.95
2023-04-15T10:45:54.908Z,71.64
2023-04-15T10:46:54.899Z,73.23
2023-04-15T10:47:54.962Z,70.11
2023-04-15T10:48:54.885Z,68.32
2023-04-15T10:49:54.890Z,67.91
2023-04-15T10:50:54.918Z,68.22
2023-04-15T10:51:54.821Z,67.44
2023-04-15T10:52:54.847Z,69.09
2023-04-15T10:53:54.867Z,69.43
2023-04-15T10:54:54.811Z,68.68
2023-04-15T10:55:54.820Z,70.34
2023-04-15T10:56:54.944Z,71.39
2023-04-15T10:57:54.788Z,72.21
2023-04-15T10:58:54.838Z,72.96
2023-04-15T10:59:54.941Z,72.79
2023-04-15T11:00:55.132Z,73.23
2023-04-15T11:01:55.032Z,73.64
2023-04-15T11:02:54.891Z,73.88
2023-04-15T11:03:54.996Z,74.29
2023-04-15T11:04:55.113Z,74.90
2023-04-15T11:05:54.718Z,73.98
2023-04-15T11:06:55.025Z,73.67
2023-04-15T11:07:54.760Z,73.84
2023-04-15T11:08:54.697Z,73.64
2023-04-15T11:09:54.755Z,73.64
2023-04-15T11:10:54.857Z,74.01
2023-04-15T11:11:54.645Z,74.01
2023-04-15T11:12:54.687Z,73.71
2023-04-15T11:13:54.659Z,73.91
2023-04-15T11:14:54.729Z,74.01
2023-04-15T11:15:54.624Z,74.42
2023-04-15T11:16:54.616Z,73.03
2023-04-15T11:17:54.735Z,73.81
2023-04-15T11:18:54.557Z,74.66
2023-04-15T11:19:54.731Z,75.37
2023-04-15T11:20:54.735Z,74.86
2023-04-15T11:21:54.732Z,75.03
2023-04-15T11:23:07.996Z,74.42
2023-04-15T11:23:54.553Z,74.42
2023-04-15T11:24:54.522Z,74.73
2023-04-15T11:25:54.622Z,75.03
2023-04-15T11:26:55.031Z,74.45
2023-04-15T11:27:54.899Z,74.45
2023-04-15T11:28:54.681Z,74.45
2023-04-15T11:29:54.427Z,75.27
2023-04-15T11:30:54.610Z,74.29
2023-04-15T11:31:54.661Z,75.61
2023-04-15T11:32:54.500Z,75.07
2023-04-15T11:33:54.428Z,75.10
2023-04-15T11:34:54.396Z,75.71
2023-04-15T11:35:54.395Z,75.20
2023-04-15T11:36:54.572Z,75.20
2023-04-15T11:37:54.345Z,76.06
2023-04-15T11:38:54.351Z,76.06
2023-04-15T11:39:54.427Z,76.36
2023-04-15T11:40:54.460Z,76.26
2023-04-15T11:41:54.317Z,76.40
2023-04-15T11:42:54.337Z,76.19
2023-04-15T11:43:54.421Z,77.11
2023-04-15T11:44:54.292Z,76.81
2023-04-15T11:45:54.350Z,77.52
2023-04-15T11:46:54.374Z,78.13
2023-04-15T11:47:54.351Z,76.81
2023-04-15T11:48:54.374Z,76.81
2023-04-15T11:49:54.264Z,76.09
2023-04-15T11:50:54.418Z,76.64
2023-04-15T11:51:54.296Z,77.52
2023-04-15T11:52:54.254Z,77.35
2023-04-15T11:53:54.209Z,77.52
2023-04-15T11:54:54.376Z,77.31
2023-04-15T11:55:54.809Z,76.84
2023-04-15T11:56:54.491Z,77.86
2023-04-15T11:57:54.163Z,77.45
2023-04-15T11:58:54.244Z,77.56
2023-04-15T11:59:54.184Z,77.66
2023-04-15T12:00:54.178Z,77.97
2023-04-15T12:01:54.193Z,77.56
2023-04-15T12:02:54.241Z,77.97
2023-04-15T12:03:54.202Z,77.90
2023-04-15T12:04:54.275Z,77.70
2023-04-15T12:05:54.192Z,79.02
2023-04-15T12:06:54.110Z,78.68
2023-04-15T12:07:54.230Z,77.97
2023-04-15T12:08:54.108Z,78.07
2023-04-15T12:09:54.127Z,78.17
2023-04-15T12:10:54.249Z,78.11
2023-04-15T12:11:54.112Z,77.80
2023-04-15T12:12:54.061Z,78.20
2023-04-15T12:13:54.024Z,78.72
2023-04-15T12:14:54.297Z,78.31
2023-04-15T12:15:54.338Z,77.80
2023-04-15T12:16:54.627Z,78.20
2023-04-15T12:17:54.533Z,77.49
2023-04-15T12:18:54.328Z,77.70
2023-04-15T12:19:54.160Z,77.76
2023-04-15T12:20:54.264Z,77.80
2023-04-15T12:21:54.010Z,77.49
2023-04-15T12:22:53.985Z,77.70
2023-04-15T12:23:54.133Z,78.20
2023-04-15T12:24:53.986Z,78.48
2023-04-15T12:25:53.931Z,77.35
2023-04-15T12:26:53.885Z,76.12
2023-04-15T12:27:53.892Z,76.98
2023-04-15T12:28:54.107Z,77.39
2023-04-15T12:29:53.849Z,77.19
2023-04-15T12:30:53.956Z,77.80
2023-04-15T12:31:53.865Z,77.19
2023-04-15T12:32:53.873Z,78.52
2023-04-15T12:33:53.962Z,77.70
2023-04-15T12:34:53.841Z,77.70
2023-04-15T12:35:54.008Z,78.52
2023-04-15T12:36:53.818Z,78.11
2023-04-15T12:37:53.770Z,78.00
2023-04-15T12:38:53.928Z,78.11
2023-04-15T12:39:53.772Z,78.00
2023-04-15T12:40:53.937Z,78.17
2023-04-15T12:41:53.726Z,78.17
2023-04-15T12:42:53.884Z,78.38
2023-04-15T12:43:53.892Z,77.25
2023-04-15T12:44:53.717Z,77.76
2023-04-15T12:45:53.790Z,78.38
2023-04-15T12:46:54.524Z,78.27
2023-04-15T12:47:53.932Z,78.03
2023-04-15T12:48:53.715Z,78.44
2023-04-15T12:49:53.622Z,78.34
2023-04-15T12:50:53.662Z,76.60
2023-04-15T12:51:53.765Z,77.83